createdAt,value
2022-10-28T00:00:43.070Z,65.62
2022-10-28T00:04:59.242Z,66.52
2022-10-28T00:09:15.384Z,66.62
2022-10-28T00:13:31.731Z,65.69
2022-10-28T00:17:47.854Z,66.60
2022-10-28T00:22:04.086Z,66.20
2022-10-28T00:26:26.064Z,65.28
2022-10-28T00:30:42.228Z,67.86
2022-10-28T00:34:58.733Z,67.23
2022-10-28T00:39:17.260Z,67.24
2022-10-28T00:43:51.366Z,68.03
2022-10-28T00:48:08.702Z,66.69
2022-10-28T00:52:28.512Z,66.97
2022-10-28T00:56:49.914Z,65.73
2022-10-28T01:01:06.246Z,67.70
2022-10-28T01:05:27.362Z,67.89
2022-10-28T01:09:44.025Z,67.83
2022-10-28T01:14:11.131Z,66.72
2022-10-28T01:18:38.726Z,66.36
2022-10-28T01:23:33.528Z,66.32
2022-10-28T01:28:17.644Z,66.13
2022-10-28T01:33:07.032Z,65.98
2022-10-28T01:37:29.407Z,66.44
2022-10-28T01:41:51.787Z,65.93
2022-10-28T01:46:27.012Z,66.76
2022-10-28T01:50:56.384Z,66.38
2022-10-28T01:55:17.452Z,66.21
2022-10-28T01:59:34.621Z,66.55
2022-10-28T02:03:51.203Z,66.79
2022-10-28T02:08:19.436Z,67.70
2022-10-28T02:12:38.183Z,67.96
2022-10-28T02:17:36.706Z,67.64
2022-10-28T02:22:03.435Z,66.92
2022-10-28T02:26:37.105Z,66.29
2022-10-28T02:31:02.503Z,66.68
2022-10-28T02:35:25.844Z,67.14
2022-10-28T02:39:44.404Z,67.21
2022-10-28T02:44:06.295Z,67.00
2022-10-28T02:48:52.775Z,68.04
2022-10-28T02:53:19.536Z,67.00
2022-10-28T02:57:48.723Z,66.90
2022-10-28T03:02:05.718Z,66.70
2022-10-28T03:06:21.980Z,67.20
2022-10-28T03:10:38.168Z,67.38
2022-10-28T03:14:54.323Z,67.43
2022-10-28T03:19:10.433Z,67.35
2022-10-28T03:23:26.651Z,67.51
2022-10-28T03:27:42.851Z,68.87
2022-10-28T03:31:59.026Z,68.46
2022-10-28T03:36:15.177Z,68.09
2022-10-28T03:40:31.491Z,67.66
2022-10-28T03:44:47.574Z,69.11
2022-10-28T03:49:04.334Z,67.76
2022-10-28T03:53:20.944Z,67.24
2022-10-28T03:57:37.118Z,68.31
2022-10-28T04:01:53.414Z,67.40
2022-10-28T04:06:12.419Z,68.18
2022-10-28T04:10:28.591Z,68.07
2022-10-28T04:14:45.029Z,68.43
2022-10-28T04:19:01.289Z,67.62
2022-10-28T04:23:21.124Z,68.26
2022-10-28T04:27:37.324Z,69.40
2022-10-28T04:31:53.431Z,67.76
2022-10-28T04:36:10.026Z,68.01
2022-10-28T04:40:26.145Z,69.41
2022-10-28T04:44:42.338Z,68.41
2022-10-28T04:48:58.564Z,68.49
2022-10-28T04:53:14.695Z,68.49
2022-10-28T04:57:30.901Z,68.43
2022-10-28T05:01:47.208Z,68.34
2022-10-28T05:06:04.026Z,69.82
2022-10-28T05:10:20.225Z,69.04
2022-10-28T05:14:36.347Z,67.76
2022-10-28T05:18:52.467Z,69.04
2022-10-28T05:23:08.631Z,68.21
2022-10-28T05:27:24.882Z,69.29
2022-10-28T05:31:41.023Z,69.39
2022-10-28T05:35:59.137Z,68.89
2022-10-28T05:40:15.566Z,68.56
2022-10-28T05:44:31.797Z,69.19
2022-10-28T05:48:48.118Z,67.42
2022-10-28T05:53:04.312Z,68.58
2022-10-28T05:57:20.501Z,67.31
2022-10-28T06:01:36.774Z,67.75
2022-10-28T06:05:54.249Z,68.08
2022-10-28T06:10:11.394Z,68.25
2022-10-28T06:14:25.954Z,67.00
2022-10-28T06:18:42.114Z,66.70
2022-10-28T06:22:58.328Z,70.45
2022-10-28T06:27:14.438Z,70.96
2022-10-28T06:31:32.094Z,71.25
2022-10-28T06:35:48.250Z,68.66
2022-10-28T06:40:04.971Z,67.77
2022-10-28T06:44:21.027Z,68.58
2022-10-28T06:48:38.700Z,68.64
2022-10-28T06:52:59.808Z,69.08
2022-10-28T06:57:15.925Z,69.45
2022-10-28T07:01:32.151Z,70.17
2022-10-28T07:05:50.172Z,68.88
2022-10-28T07:10:07.410Z,69.16
2022-10-28T07:14:23.673Z,68.62
2022-10-28T07:18:39.804Z,68.09
2022-10-28T07:23:00.278Z,68.45
2022-10-28T07:27:16.476Z,67.84
2022-10-28T07:31:32.901Z,69.47
2022-10-28T07:35:49.134Z,67.41
2022-10-28T07:40:06.209Z,66.64
2022-10-28T07:44:22.481Z,66.91
2022-10-28T07:48:39.142Z,67.39
2022-10-28T07:52:55.562Z,67.62
2022-10-28T07:57:12.262Z,67.23
2022-10-28T08:01:28.501Z,66.13
2022-10-28T08:05:44.775Z,66.38
2022-10-28T08:10:00.927Z,67.25
2022-10-28T08:14:17.003Z,67.09
2022-10-28T08:18:33.222Z,65.75
2022-10-28T08:22:49.663Z,65.64
2022-10-28T08:27:06.060Z,65.79
2022-10-28T08:31:22.362Z,64.98
2022-10-28T08:35:38.476Z,65.02
2022-10-28T08:39:54.584Z,65.45
2022-10-28T08:44:52.150Z,65.93
2022-10-28T08:49:14.744Z,65.00
2022-10-28T08:53:45.579Z,65.66
2022-10-28T08:58:13.524Z,65.08
2022-10-28T09:02:56.711Z,65.28
2022-10-28T09:07:20.376Z,64.36
2022-10-28T09:11:49.090Z,64.54
2022-10-28T09:16:32.983Z,64.71
2022-10-28T09:20:52.004Z,65.02
2022-10-28T09:25:23.476Z,64.54
2022-10-28T09:29:49.082Z,64.51
2022-10-28T09:34:36.105Z,63.89
2022-10-28T09:38:55.141Z,65.08
2022-10-28T09:43:35.984Z,63.86
2022-10-28T09:48:03.249Z,65.09
2022-10-28T09:52:36.395Z,63.70
2022-10-28T09:56:52.694Z,65.24
2022-10-28T10:01:08.890Z,63.99
2022-10-28T10:05:25.991Z,64.61
2022-10-28T10:09:44.115Z,65.22
2022-10-28T10:14:03.520Z,64.62
2022-10-28T10:18:38.443Z,63.17
2022-10-28T10:22:54.888Z,64.40
2022-10-28T10:27:11.243Z,64.71
2022-10-28T10:31:29.979Z,64.98
2022-10-28T10:35:56.534Z,64.71
2022-10-28T10:40:25.572Z,63.29
2022-10-28T10:44:42.793Z,63.41
2022-10-28T10:49:14.511Z,62.74
2022-10-28T10:53:32.883Z,63.16
2022-10-28T10:57:49.587Z,62.91
2022-10-28T11:02:20.785Z,62.96
2022-10-28T11:06:42.336Z,63.73
2022-10-28T11:11:22.136Z,63.33
2022-10-28T11:15:38.390Z,62.74
2022-10-28T11:20:00.523Z,63.37
2022-10-28T11:24:28.710Z,63.31
2022-10-28T11:29:14.967Z,62.72
2022-10-28T11:33:55.494Z,63.20
2022-10-28T11:38:20.536Z,62.63
2022-10-28T11:43:07.017Z,63.32
2022-10-28T11:47:47.222Z,62.85
2022-10-28T11:52:42.759Z,62.25
2022-10-28T11:57:05.812Z,62.50
2022-10-28T12:01:34.108Z,63.29
2022-10-28T12:05:55.244Z,62.90
2022-10-28T12:10:16.877Z,62.63
2022-10-28T12:14:53.330Z,61.74
2022-10-28T12:19:14.440Z,61.97
2022-10-28T12:23:32.132Z,62.04
2022-10-28T12:27:50.651Z,63.51
2022-10-28T12:32:12.214Z,63.88
2022-10-28T12:36:56.027Z,62.75
2022-10-28T12:41:23.642Z,61.94
2022-10-28T12:45:41.029Z,62.40
2022-10-28T12:50:09.323Z,62.60
2022-10-28T12:54:59.050Z,62.49
2022-10-28T12:59:48.409Z,62.29
2022-10-28T13:04:04.780Z,62.47
2022-10-28T13:08:39.673Z,63.28
2022-10-28T13:13:09.238Z,63.21
2022-10-28T13:17:40.710Z,63.00
2022-10-28T13:22:41.891Z,62.42
2022-10-28T13:27:04.195Z,62.47
2022-10-28T13:31:20.774Z,62.85
2022-10-28T13:35:37.229Z,63.04
2022-10-28T13:39:53.356Z,63.20
2022-10-28T13:44:09.389Z,63.18
2022-10-28T13:48:43.328Z,62.96
2022-10-28T13:53:24.280Z,63.34
2022-10-28T13:57:46.313Z,63.39
2022-10-28T14:02:35.689Z,63.25
2022-10-28T14:07:10.409Z,63.73
2022-10-28T14:11:32.757Z,64.27
2022-10-28T14:15:49.927Z,63.65
2022-10-28T14:20:20.940Z,63.53
2022-10-28T14:24:39.759Z,63.66
2022-10-28T14:28:56.166Z,64.09
2022-10-28T14:33:21.761Z,63.23
2022-10-28T14:38:05.774Z,63.30
2022-10-28T14:43:05.268Z,63.80
2022-10-28T14:47:45.785Z,63.24
2022-10-28T14:52:17.194Z,63.47
2022-10-28T14:56:33.398Z,63.53
2022-10-28T15:01:19.579Z,63.76
2022-10-28T15:05:35.992Z,63.60
2022-10-28T15:09:53.839Z,65.13
2022-10-28T15:14:25.449Z,65.93
2022-10-28T15:18:46.465Z,65.11
2022-10-28T15:23:22.524Z,64.32
2022-10-28T15:27:40.163Z,65.43
2022-10-28T15:32:21.890Z,65.22
2022-10-28T15:36:38.152Z,64.83
2022-10-28T15:40:54.643Z,64.61
2022-10-28T15:45:25.032Z,64.08
2022-10-28T15:49:41.748Z,65.71
2022-10-28T15:54:19.198Z,66.14
2022-10-28T15:58:39.153Z,65.05
2022-10-28T16:03:05.812Z,64.99
2022-10-28T16:07:22.843Z,65.41
2022-10-28T16:11:42.957Z,66.30
2022-10-28T16:16:13.177Z,65.96
2022-10-28T16:20:30.360Z,64.97
2022-10-28T16:24:46.987Z,65.41
2022-10-28T16:29:03.123Z,66.00
2022-10-28T16:33:19.527Z,66.23
2022-10-28T16:37:36.745Z,66.91
2022-10-28T16:41:56.895Z,66.08
2022-10-28T16:46:14.004Z,66.19
2022-10-28T16:50:30.121Z,66.72
2022-10-28T16:54:46.988Z,67.44
2022-10-28T16:59:03.221Z,66.50
2022-10-28T17:03:19.479Z,65.50
2022-10-28T17:07:35.582Z,66.08
2022-10-28T17:11:51.727Z,65.98
2022-10-28T17:16:08.075Z,67.25
2022-10-28T17:20:24.224Z,66.55
2022-10-28T17:24:40.450Z,66.50
2022-10-28T17:28:56.610Z,66.47
2022-10-28T17:33:12.848Z,67.18
2022-10-28T17:37:29.015Z,66.94
2022-10-28T17:41:45.257Z,68.11
2022-10-28T17:46:06.399Z,67.89
2022-10-28T17:50:22.555Z,67.96
2022-10-28T17:54:38.843Z,67.92
2022-10-28T17:58:55.209Z,68.44
2022-10-28T18:03:11.374Z,66.84
2022-10-28T18:07:27.545Z,67.54
2022-10-28T18:11:43.719Z,66.52
2022-10-28T18:16:11.500Z,67.58
2022-10-28T18:20:27.920Z,67.63
2022-10-28T18:24:44.140Z,67.24
2022-10-28T18:29:04.183Z,67.47
2022-10-28T18:33:20.710Z,67.91
2022-10-28T18:37:36.886Z,67.60
2022-10-28T18:41:53.012Z,68.44
2022-10-28T18:46:09.538Z,67.60
2022-10-28T18:50:25.831Z,68.00
2022-10-28T18:54:42.099Z,68.45
2022-10-28T18:59:01.690Z,68.31
2022-10-28T19:03:22.817Z,68.31
2022-10-28T19:07:39.100Z,67.91
2022-10-28T19:11:55.198Z,67.62
2022-10-28T19:20:32.663Z,68.14
2022-10-28T19:24:48.835Z,67.35
2022-10-28T19:29:05.836Z,67.60
2022-10-28T19:33:21.953Z,68.16
2022-10-28T19:37:38.053Z,67.15
2022-10-28T19:41:54.193Z,67.54
2022-10-28T19:46:15.711Z,67.89
2022-10-28T19:50:31.828Z,69.46
2022-10-28T19:54:47.977Z,68.00
2022-10-28T19:59:05.361Z,68.01
2022-10-28T20:03:21.570Z,68.05
2022-10-28T20:07:37.635Z,67.13
2022-10-28T20:11:53.769Z,67.48
2022-10-28T20:16:16.989Z,67.99
2022-10-28T20:20:34.827Z,68.59
2022-10-28T20:24:51.016Z,67.95
2022-10-28T20:29:08.883Z,67.75
2022-10-28T20:33:25.981Z,67.47
2022-10-28T20:37:42.087Z,66.68
2022-10-28T20:41:58.168Z,68.58
2022-10-28T20:46:19.733Z,68.15
2022-10-28T20:50:36.343Z,69.60
2022-10-28T20:54:52.442Z,67.61
2022-10-28T20:59:08.650Z,67.58
2022-10-28T21:03:25.130Z,67.46
2022-10-28T21:07:41.239Z,67.67
2022-10-28T21:11:57.385Z,67.60
2022-10-28T21:16:13.974Z,68.07
2022-10-28T21:20:31.125Z,66.95
2022-10-28T21:24:47.291Z,68.06
2022-10-28T21:29:03.435Z,68.67
2022-10-28T21:33:19.588Z,68.60
2022-10-28T21:37:35.800Z,68.27
2022-10-28T21:41:53.237Z,67.92
2022-10-28T21:46:10.062Z,68.75
2022-10-28T21:50:26.200Z,68.73
2022-10-28T21:54:42.840Z,68.53
2022-10-28T21:58:58.984Z,68.10
2022-10-28T22:03:15.386Z,67.93
2022-10-28T22:07:31.511Z,68.12
2022-10-28T22:11:47.669Z,68.15
2022-10-28T22:16:06.638Z,68.56
2022-10-28T22:20:22.970Z,67.96
2022-10-28T22:24:39.217Z,67.81
2022-10-28T22:28:55.617Z,68.66
2022-10-28T22:33:11.789Z,68.51
2022-10-28T22:37:27.959Z,68.58
2022-10-28T22:41:44.078Z,68.35
2022-10-28T22:46:00.915Z,68.25
2022-10-28T22:50:17.234Z,68.29
2022-10-28T22:54:33.423Z,69.09
2022-10-28T22:58:54.187Z,68.67
2022-10-28T23:03:10.555Z,68.60
2022-10-28T23:07:26.746Z,68.66
2022-10-28T23:11:42.905Z,68.37
2022-10-28T23:16:07.172Z,68.71
2022-10-28T23:20:25.117Z,68.42
2022-10-28T23:24:41.401Z,68.16
2022-10-28T23:28:59.663Z,68.42
2022-10-28T23:33:15.907Z,67.77
2022-10-28T23:37:32.428Z,68.50
2022-10-28T23:41:48.790Z,68.63
2022-10-28T23:46:05.105Z,69.30
2022-10-28T23:50:21.336Z,68.95
2022-10-28T23:54:37.662Z,68.95
2022-10-28T23:58:53.870Z,68.22
